sensor_id;sensor_type;location;lat;lon;timestamp;P1;durP1;ratioP1;P2;durP2;ratioP2
81908;SDS011;71372;43.514;1.512;2023-12-04T00:01:21;2.75;;;1.35;;
81908;SDS011;71372;43.514;1.512;2023-12-04T00:03:47;4.45;;;1.63;;
81908;SDS011;71372;43.514;1.512;2023-12-04T00:06:13;3.72;;;1.83;;
81908;SDS011;71372;43.514;1.512;2023-12-04T00:08:39;6.15;;;2.10;;
81908;SDS011;71372;43.514;1.512;2023-12-04T00:11:06;5.82;;;2.00;;
81908;SDS011;71372;43.514;1.512;2023-12-04T00:13:32;3.72;;;1.63;;
81908;SDS011;71372;43.514;1.512;2023-12-04T00:15:59;3.17;;;1.60;;
81908;SDS011;71372;43.514;1.512;2023-12-04T00:18:25;4.78;;;1.80;;
81908;SDS011;71372;43.514;1.512;2023-12-04T00:20:51;2.88;;;1.40;;
81908;SDS011;71372;43.514;1.512;2023-12-04T00:23:17;6.22;;;2.53;;
81908;SDS011;71372;43.514;1.512;2023-12-04T00:25:43;4.35;;;2.00;;
81908;SDS011;71372;43.514;1.512;2023-12-04T00:28:09;3.78;;;1.80;;
81908;SDS011;71372;43.514;1.512;2023-12-04T00:30:35;4.03;;;2.05;;
81908;SDS011;71372;43.514;1.512;2023-12-04T00:33:01;3.35;;;1.70;;
81908;SDS011;71372;43.514;1.512;2023-12-04T00:35:27;3.78;;;1.58;;
81908;SDS011;71372;43.514;1.512;2023-12-04T00:37:53;2.22;;;1.50;;
81908;SDS011;71372;43.514;1.512;2023-12-04T00:40:19;4.80;;;1.65;;
81908;SDS011;71372;43.514;1.512;2023-12-04T00:42:45;3.08;;;1.65;;
81908;SDS011;71372;43.514;1.512;2023-12-04T00:45:11;4.20;;;1.95;;
81908;SDS011;71372;43.514;1.512;2023-12-04T00:47:37;4.93;;;1.98;;
81908;SDS011;71372;43.514;1.512;2023-12-04T00:50:02;3.30;;;1.90;;
81908;SDS011;71372;43.514;1.512;2023-12-04T00:52:29;3.58;;;1.70;;
81908;SDS011;71372;43.514;1.512;2023-12-04T00:54:55;3.05;;;1.90;;
81908;SDS011;71372;43.514;1.512;2023-12-04T00:57:21;5.78;;;2.10;;
81908;SDS011;71372;43.514;1.512;2023-12-04T00:59:48;4.30;;;2.17;;
81908;SDS011;71372;43.514;1.512;2023-12-04T01:02:14;3.75;;;1.90;;
81908;SDS011;71372;43.514;1.512;2023-12-04T01:04:40;3.83;;;2.33;;
81908;SDS011;71372;43.514;1.512;2023-12-04T01:07:09;4.75;;;2.38;;
81908;SDS011;71372;43.514;1.512;2023-12-04T01:09:35;4.60;;;2.45;;
81908;SDS011;71372;43.514;1.512;2023-12-04T01:12:01;3.40;;;1.90;;
81908;SDS011;71372;43.514;1.512;2023-12-04T01:14:28;5.35;;;2.17;;
81908;SDS011;71372;43.514;1.512;2023-12-04T01:16:54;3.97;;;2.03;;
81908;SDS011;71372;43.514;1.512;2023-12-04T01:19:20;3.58;;;2.00;;
81908;SDS011;71372;43.514;1.512;2023-12-04T01:21:46;4.50;;;1.85;;
81908;SDS011;71372;43.514;1.512;2023-12-04T01:24:12;5.10;;;2.13;;
81908;SDS011;71372;43.514;1.512;2023-12-04T01:26:39;4.72;;;2.30;;
81908;SDS011;71372;43.514;1.512;2023-12-04T01:29:05;7.55;;;2.22;;
81908;SDS011;71372;43.514;1.512;2023-12-04T01:31:31;3.20;;;1.95;;
81908;SDS011;71372;43.514;1.512;2023-12-04T01:33:57;3.33;;;1.85;;
81908;SDS011;71372;43.514;1.512;2023-12-04T01:36:23;3.45;;;1.80;;
81908;SDS011;71372;43.514;1.512;2023-12-04T01:38:49;3.15;;;1.83;;
81908;SDS011;71372;43.514;1.512;2023-12-04T01:41:15;3.22;;;1.80;;
81908;SDS011;71372;43.514;1.512;2023-12-04T01:43:41;3.03;;;2.15;;
81908;SDS011;71372;43.514;1.512;2023-12-04T01:46:07;3.80;;;1.80;;
81908;SDS011;71372;43.514;1.512;2023-12-04T01:48:33;3.95;;;1.73;;
81908;SDS011;71372;43.514;1.512;2023-12-04T01:51:00;3.67;;;1.70;;
81908;SDS011;71372;43.514;1.512;2023-12-04T01:53:30;3.63;;;1.88;;
81908;SDS011;71372;43.514;1.512;2023-12-04T01:55:56;3.83;;;1.90;;
81908;SDS011;71372;43.514;1.512;2023-12-04T01:58:22;5.88;;;2.42;;
81908;SDS011;71372;43.514;1.512;2023-12-04T02:00:48;3.35;;;1.80;;
81908;SDS011;71372;43.514;1.512;2023-12-04T02:03:14;4.07;;;2.03;;
81908;SDS011;71372;43.514;1.512;2023-12-04T02:05:40;6.97;;;2.25;;
81908;SDS011;71372;43.514;1.512;2023-12-04T02:08:09;3.53;;;1.90;;
81908;SDS011;71372;43.514;1.512;2023-12-04T02:10:36;4.38;;;2.00;;
81908;SDS011;71372;43.514;1.512;2023-12-04T02:13:02;4.93;;;2.33;;
81908;SDS011;71372;43.514;1.512;2023-12-04T02:15:28;4.47;;;2.17;;
81908;SDS011;71372;43.514;1.512;2023-12-04T02:17:54;7.82;;;2.42;;
81908;SDS011;71372;43.514;1.512;2023-12-04T02:20:20;4.43;;;2.33;;
81908;SDS011;71372;43.514;1.512;2023-12-04T02:22:46;4.68;;;2.20;;
81908;SDS011;71372;43.514;1.512;2023-12-04T02:25:12;5.15;;;2.40;;
81908;SDS011;71372;43.514;1.512;2023-12-04T02:27:44;5.65;;;2.33;;
81908;SDS011;71372;43.514;1.512;2023-12-04T02:30:16;4.53;;;2.28;;
81908;SDS011;71372;43.514;1.512;2023-12-04T02:32:47;2.90;;;1.95;;
81908;SDS011;71372;43.514;1.512;2023-12-04T02:35:14;4.32;;;2.05;;
81908;SDS011;71372;43.514;1.512;2023-12-04T02:37:44;4.20;;;1.88;;
81908;SDS011;71372;43.514;1.512;2023-12-04T02:40:11;4.60;;;2.22;;
81908;SDS011;71372;43.514;1.512;2023-12-04T02:42:38;4.65;;;2.35;;
81908;SDS011;71372;43.514;1.512;2023-12-04T02:45:04;5.28;;;2.30;;
81908;SDS011;71372;43.514;1.512;2023-12-04T02:47:30;6.60;;;2.42;;
81908;SDS011;71372;43.514;1.512;2023-12-04T02:49:56;3.67;;;1.98;;
81908;SDS011;71372;43.514;1.512;2023-12-04T02:52:22;4.22;;;2.30;;
81908;SDS011;71372;43.514;1.512;2023-12-04T02:54:48;3.85;;;2.28;;
81908;SDS011;71372;43.514;1.512;2023-12-04T02:57:13;4.63;;;2.40;;
81908;SDS011;71372;43.514;1.512;2023-12-04T02:59:39;4.60;;;2.30;;
81908;SDS011;71372;43.514;1.512;2023-12-04T03:02:05;4.68;;;1.95;;
81908;SDS011;71372;43.514;1.512;2023-12-04T03:04:31;7.53;;;2.35;;
81908;SDS011;71372;43.514;1.512;2023-12-04T03:06:57;4.60;;;2.15;;
81908;SDS011;71372;43.514;1.512;2023-12-04T03:09:23;4.97;;;2.25;;
81908;SDS011;71372;43.514;1.512;2023-12-04T03:11:49;12.82;;;2.55;;
81908;SDS011;71372;43.514;1.512;2023-12-04T03:14:15;4.35;;;2.40;;
81908;SDS011;71372;43.514;1.512;2023-12-04T03:16:41;5.78;;;3.15;;
81908;SDS011;71372;43.514;1.512;2023-12-04T03:19:07;5.07;;;2.10;;
81908;SDS011;71372;43.514;1.512;2023-12-04T03:21:33;4.90;;;2.47;;
81908;SDS011;71372;43.514;1.512;2023-12-04T03:23:59;6.55;;;2.60;;
81908;SDS011;71372;43.514;1.512;2023-12-04T03:26:25;5.75;;;2.15;;
81908;SDS011;71372;43.514;1.512;2023-12-04T03:28:51;3.50;;;2.03;;
81908;SDS011;71372;43.514;1.512;2023-12-04T03:31:16;4.38;;;2.28;;
81908;SDS011;71372;43.514;1.512;2023-12-04T03:33:42;4.70;;;2.08;;
81908;SDS011;71372;43.514;1.512;2023-12-04T03:36:08;4.70;;;2.15;;
81908;SDS011;71372;43.514;1.512;2023-12-04T03:38:34;4.57;;;2.45;;
81908;SDS011;71372;43.514;1.512;2023-12-04T03:41:01;15.15;;;3.00;;
81908;SDS011;71372;43.514;1.512;2023-12-04T03:43:27;7.40;;;2.42;;
81908;SDS011;71372;43.514;1.512;2023-12-04T03:45:53;2.88;;;2.10;;
81908;SDS011;71372;43.514;1.512;2023-12-04T03:48:18;6.47;;;2.72;;
81908;SDS011;71372;43.514;1.512;2023-12-04T03:50:44;5.43;;;2.60;;
81908;SDS011;71372;43.514;1.512;2023-12-04T03:53:10;4.38;;;2.30;;
81908;SDS011;71372;43.514;1.512;2023-12-04T03:55:36;5.90;;;2.65;;
81908;SDS011;71372;43.514;1.512;2023-12-04T03:58:02;21.25;;;3.05;;
81908;SDS011;71372;43.514;1.512;2023-12-04T04:00:29;7.88;;;2.70;;
81908;SDS011;71372;43.514;1.512;2023-12-04T04:02:54;7.13;;;2.58;;
81908;SDS011;71372;43.514;1.512;2023-12-04T04:05:20;10.63;;;3.05;;
81908;SDS011;71372;43.514;1.512;2023-12-04T04:07:46;6.57;;;2.83;;
81908;SDS011;71372;43.514;1.512;2023-12-04T04:10:12;5.55;;;2.53;;
81908;SDS011;71372;43.514;1.512;2023-12-04T04:12:38;5.43;;;2.85;;
81908;SDS011;71372;43.514;1.512;2023-12-04T04:15:04;5.93;;;2.97;;
81908;SDS011;71372;43.514;1.512;2023-12-04T04:17:31;6.80;;;2.97;;
81908;SDS011;71372;43.514;1.512;2023-12-04T04:19:59;4.80;;;2.63;;
81908;SDS011;71372;43.514;1.512;2023-12-04T04:22:25;5.85;;;2.85;;
81908;SDS011;71372;43.514;1.512;2023-12-04T04:24:51;6.38;;;2.70;;
81908;SDS011;71372;43.514;1.512;2023-12-04T04:27:17;7.30;;;3.00;;
81908;SDS011;71372;43.514;1.512;2023-12-04T04:29:42;5.25;;;3.08;;
81908;SDS011;71372;43.514;1.512;2023-12-04T04:32:08;7.88;;;3.38;;
81908;SDS011;71372;43.514;1.512;2023-12-04T04:34:34;5.30;;;2.22;;
81908;SDS011;71372;43.514;1.512;2023-12-04T04:37:00;5.93;;;2.35;;
81908;SDS011;71372;43.514;1.512;2023-12-04T04:39:26;6.95;;;2.65;;
81908;SDS011;71372;43.514;1.512;2023-12-04T04:41:52;8.25;;;2.42;;
81908;SDS011;71372;43.514;1.512;2023-12-04T04:44:18;5.40;;;2.17;;
81908;SDS011;71372;43.514;1.512;2023-12-04T04:46:44;2.97;;;2.05;;
81908;SDS011;71372;43.514;1.512;2023-12-04T04:49:10;7.40;;;3.30;;
81908;SDS011;71372;43.514;1.512;2023-12-04T04:51:36;5.32;;;2.40;;
81908;SDS011;71372;43.514;1.512;2023-12-04T04:54:01;7.05;;;2.70;;
81908;SDS011;71372;43.514;1.512;2023-12-04T04:56:27;7.40;;;2.95;;
81908;SDS011;71372;43.514;1.512;2023-12-04T04:58:54;5.45;;;2.90;;
81908;SDS011;71372;43.514;1.512;2023-12-04T05:01:20;7.82;;;3.42;;
81908;SDS011;71372;43.514;1.512;2023-12-04T05:03:46;6.57;;;2.92;;
81908;SDS011;71372;43.514;1.512;2023-12-04T05:06:12;7.40;;;2.95;;
81908;SDS011;71372;43.514;1.512;2023-12-04T05:08:37;7.97;;;3.05;;
81908;SDS011;71372;43.514;1.512;2023-12-04T05:11:04;7.10;;;3.22;;
81908;SDS011;71372;43.514;1.512;2023-12-04T05:13:30;5.85;;;2.90;;
81908;SDS011;71372;43.514;1.512;2023-12-04T05:15:56;7.57;;;3.53;;
81908;SDS011;71372;43.514;1.512;2023-12-04T05:18:21;5.13;;;3.35;;
81908;SDS011;71372;43.514;1.512;2023-12-04T05:20:47;7.47;;;3.13;;
81908;SDS011;71372;43.514;1.512;2023-12-04T05:23:13;9.18;;;3.95;;
81908;SDS011;71372;43.514;1.512;2023-12-04T05:25:39;11.45;;;3.95;;
81908;SDS011;71372;43.514;1.512;2023-12-04T05:28:05;8.68;;;3.53;;
81908;SDS011;71372;43.514;1.512;2023-12-04T05:30:31;6.93;;;3.58;;
81908;SDS011;71372;43.514;1.512;2023-12-04T05:32:57;7.15;;;3.60;;
81908;SDS011;71372;43.514;1.512;2023-12-04T05:35:23;9.75;;;4.18;;
81908;SDS011;71372;43.514;1.512;2023-12-04T05:37:49;7.22;;;3.65;;
81908;SDS011;71372;43.514;1.512;2023-12-04T05:40:15;7.13;;;3.47;;
81908;SDS011;71372;43.514;1.512;2023-12-04T05:42:41;8.52;;;3.40;;
81908;SDS011;71372;43.514;1.512;2023-12-04T05:45:07;7.00;;;3.60;;
81908;SDS011;71372;43.514;1.512;2023-12-04T05:47:34;7.05;;;3.67;;
81908;SDS011;71372;43.514;1.512;2023-12-04T05:50:00;7.25;;;3.78;;
81908;SDS011;71372;43.514;1.512;2023-12-04T05:52:26;7.80;;;3.65;;
81908;SDS011;71372;43.514;1.512;2023-12-04T05:54:52;7.93;;;3.85;;
81908;SDS011;71372;43.514;1.512;2023-12-04T05:57:18;5.57;;;3.20;;
81908;SDS011;71372;43.514;1.512;2023-12-04T05:59:44;8.05;;;3.70;;
81908;SDS011;71372;43.514;1.512;2023-12-04T06:02:10;8.68;;;3.45;;
81908;SDS011;71372;43.514;1.512;2023-12-04T06:04:36;9.68;;;3.90;;
81908;SDS011;71372;43.514;1.512;2023-12-04T06:07:02;8.88;;;3.38;;
81908;SDS011;71372;43.514;1.512;2023-12-04T06:09:28;11.88;;;5.25;;
81908;SDS011;71372;43.514;1.512;2023-12-04T06:11:54;12.20;;;5.20;;
81908;SDS011;71372;43.514;1.512;2023-12-04T06:14:19;10.52;;;4.97;;
81908;SDS011;71372;43.514;1.512;2023-12-04T06:16:45;20.15;;;7.65;;
81908;SDS011;71372;43.514;1.512;2023-12-04T06:19:11;13.65;;;6.43;;
81908;SDS011;71372;43.514;1.512;2023-12-04T06:21:37;10.73;;;4.70;;
81908;SDS011;71372;43.514;1.512;2023-12-04T06:24:03;15.65;;;5.10;;
81908;SDS011;71372;43.514;1.512;2023-12-04T06:26:31;9.10;;;4.60;;
81908;SDS011;71372;43.514;1.512;2023-12-04T06:28:57;6.75;;;3.38;;
81908;SDS011;71372;43.514;1.512;2023-12-04T06:31:23;8.40;;;3.53;;
81908;SDS011;71372;43.514;1.512;2023-12-04T06:33:49;6.88;;;3.47;;
81908;SDS011;71372;43.514;1.512;2023-12-04T06:36:15;6.80;;;3.95;;
81908;SDS011;71372;43.514;1.512;2023-12-04T06:38:43;9.90;;;4.00;;
81908;SDS011;71372;43.514;1.512;2023-12-04T06:41:12;7.45;;;2.95;;
81908;SDS011;71372;43.514;1.512;2023-12-04T06:43:39;7.72;;;3.30;;
81908;SDS011;71372;43.514;1.512;2023-12-04T06:46:05;8.38;;;3.78;;
81908;SDS011;71372;43.514;1.512;2023-12-04T06:48:32;10.98;;;3.67;;
81908;SDS011;71372;43.514;1.512;2023-12-04T06:50:58;6.85;;;3.13;;
81908;SDS011;71372;43.514;1.512;2023-12-04T06:53:24;7.30;;;3.75;;
81908;SDS011;71372;43.514;1.512;2023-12-04T06:55:50;6.93;;;3.88;;
81908;SDS011;71372;43.514;1.512;2023-12-04T06:58:16;10.52;;;4.07;;
81908;SDS011;71372;43.514;1.512;2023-12-04T07:00:42;7.35;;;3.85;;
81908;SDS011;71372;43.514;1.512;2023-12-04T07:03:08;8.52;;;4.45;;
81908;SDS011;71372;43.514;1.512;2023-12-04T07:05:34;10.02;;;4.95;;
81908;SDS011;71372;43.514;1.512;2023-12-04T07:08:00;10.38;;;3.92;;
81908;SDS011;71372;43.514;1.512;2023-12-04T07:10:26;9.82;;;4.72;;
81908;SDS011;71372;43.514;1.512;2023-12-04T07:12:52;6.57;;;3.45;;
81908;SDS011;71372;43.514;1.512;2023-12-04T07:15:18;10.15;;;4.28;;
81908;SDS011;71372;43.514;1.512;2023-12-04T07:17:44;10.93;;;4.75;;
81908;SDS011;71372;43.514;1.512;2023-12-04T07:20:10;8.93;;;4.13;;
81908;SDS011;71372;43.514;1.512;2023-12-04T07:22:37;6.47;;;3.90;;
81908;SDS011;71372;43.514;1.512;2023-12-04T07:25:03;9.23;;;3.85;;
81908;SDS011;71372;43.514;1.512;2023-12-04T07:27:29;9.57;;;4.45;;
81908;SDS011;71372;43.514;1.512;2023-12-04T07:29:55;7.30;;;3.80;;
81908;SDS011;71372;43.514;1.512;2023-12-04T07:32:21;10.00;;;3.80;;
81908;SDS011;71372;43.514;1.512;2023-12-04T07:34:47;7.63;;;3.70;;
81908;SDS011;71372;43.514;1.512;2023-12-04T07:37:13;11.63;;;3.65;;
81908;SDS011;71372;43.514;1.512;2023-12-04T07:39:39;11.23;;;3.88;;
81908;SDS011;71372;43.514;1.512;2023-12-04T07:42:05;15.10;;;5.20;;
81908;SDS011;71372;43.514;1.512;2023-12-04T07:44:30;13.23;;;6.38;;
81908;SDS011;71372;43.514;1.512;2023-12-04T07:46:56;10.57;;;5.30;;
81908;SDS011;71372;43.514;1.512;2023-12-04T07:49:23;9.98;;;4.63;;
81908;SDS011;71372;43.514;1.512;2023-12-04T07:51:49;13.20;;;5.10;;
81908;SDS011;71372;43.514;1.512;2023-12-04T07:54:14;16.13;;;6.03;;
81908;SDS011;71372;43.514;1.512;2023-12-04T07:56:40;17.42;;;6.60;;
81908;SDS011;71372;43.514;1.512;2023-12-04T07:59:07;14.82;;;6.25;;
81908;SDS011;71372;43.514;1.512;2023-12-04T08:01:33;15.43;;;7.25;;
81908;SDS011;71372;43.514;1.512;2023-12-04T08:04:00;12.88;;;5.75;;
81908;SDS011;71372;43.514;1.512;2023-12-04T08:06:26;22.38;;;8.32;;
81908;SDS011;71372;43.514;1.512;2023-12-04T08:08:52;23.02;;;8.13;;
81908;SDS011;71372;43.514;1.512;2023-12-04T08:11:18;18.73;;;7.38;;
81908;SDS011;71372;43.514;1.512;2023-12-04T08:13:44;16.17;;;7.47;;
81908;SDS011;71372;43.514;1.512;2023-12-04T08:16:13;19.30;;;7.38;;
81908;SDS011;71372;43.514;1.512;2023-12-04T08:18:41;16.80;;;6.57;;
81908;SDS011;71372;43.514;1.512;2023-12-04T08:21:09;15.30;;;6.07;;
81908;SDS011;71372;43.514;1.512;2023-12-04T08:23:35;13.52;;;6.20;;
81908;SDS011;71372;43.514;1.512;2023-12-04T08:26:01;15.95;;;6.07;;
81908;SDS011;71372;43.514;1.512;2023-12-04T08:28:27;12.60;;;6.13;;
81908;SDS011;71372;43.514;1.512;2023-12-04T08:30:53;14.23;;;6.28;;
81908;SDS011;71372;43.514;1.512;2023-12-04T08:33:19;9.93;;;5.03;;
81908;SDS011;71372;43.514;1.512;2023-12-04T08:35:46;13.13;;;5.50;;
81908;SDS011;71372;43.514;1.512;2023-12-04T08:38:12;13.93;;;6.03;;
81908;SDS011;71372;43.514;1.512;2023-12-04T08:40:38;11.20;;;5.22;;
81908;SDS011;71372;43.514;1.512;2023-12-04T08:43:05;12.27;;;5.53;;
81908;SDS011;71372;43.514;1.512;2023-12-04T08:45:31;9.57;;;5.38;;
81908;SDS011;71372;43.514;1.512;2023-12-04T08:47:57;12.38;;;5.53;;
81908;SDS011;71372;43.514;1.512;2023-12-04T08:50:23;14.02;;;5.70;;
81908;SDS011;71372;43.514;1.512;2023-12-04T08:52:50;13.65;;;5.53;;
81908;SDS011;71372;43.514;1.512;2023-12-04T08:55:18;10.43;;;4.82;;
81908;SDS011;71372;43.514;1.512;2023-12-04T08:57:44;8.85;;;4.68;;
81908;SDS011;71372;43.514;1.512;2023-12-04T09:00:10;9.73;;;4.40;;
81908;SDS011;71372;43.514;1.512;2023-12-04T09:02:37;10.68;;;4.78;;
81908;SDS011;71372;43.514;1.512;2023-12-04T09:05:03;9.85;;;4.10;;
81908;SDS011;71372;43.514;1.512;2023-12-04T09:07:29;12.82;;;4.75;;
81908;SDS011;71372;43.514;1.512;2023-12-04T09:09:55;7.30;;;4.13;;
81908;SDS011;71372;43.514;1.512;2023-12-04T09:12:21;7.47;;;3.53;;
81908;SDS011;71372;43.514;1.512;2023-12-04T09:14:47;11.23;;;4.13;;
81908;SDS011;71372;43.514;1.512;2023-12-04T09:17:13;8.15;;;3.75;;
81908;SDS011;71372;43.514;1.512;2023-12-04T09:19:39;12.70;;;3.80;;
81908;SDS011;71372;43.514;1.512;2023-12-04T09:22:05;7.97;;;3.80;;
81908;SDS011;71372;43.514;1.512;2023-12-04T09:24:31;9.40;;;3.85;;
81908;SDS011;71372;43.514;1.512;2023-12-04T09:26:57;7.55;;;3.33;;
81908;SDS011;71372;43.514;1.512;2023-12-04T09:29:23;7.75;;;3.40;;
81908;SDS011;71372;43.514;1.512;2023-12-04T09:31:50;9.13;;;3.38;;
81908;SDS011;71372;43.514;1.512;2023-12-04T09:34:17;11.02;;;3.50;;
81908;SDS011;71372;43.514;1.512;2023-12-04T09:36:44;10.48;;;3.92;;
81908;SDS011;71372;43.514;1.512;2023-12-04T09:39:10;14.23;;;3.58;;
81908;SDS011;71372;43.514;1.512;2023-12-04T09:41:36;6.03;;;3.10;;
81908;SDS011;71372;43.514;1.512;2023-12-04T09:44:03;7.47;;;3.17;;
81908;SDS011;71372;43.514;1.512;2023-12-04T09:46:30;8.55;;;3.38;;
81908;SDS011;71372;43.514;1.512;2023-12-04T09:48:56;8.57;;;2.50;;
81908;SDS011;71372;43.514;1.512;2023-12-04T09:51:23;6.00;;;2.83;;
81908;SDS011;71372;43.514;1.512;2023-12-04T09:53:51;5.63;;;2.45;;
81908;SDS011;71372;43.514;1.512;2023-12-04T09:56:18;8.10;;;3.20;;
81908;SDS011;71372;43.514;1.512;2023-12-04T09:58:45;10.02;;;2.83;;
81908;SDS011;71372;43.514;1.512;2023-12-04T10:01:17;7.47;;;2.50;;
81908;SDS011;71372;43.514;1.512;2023-12-04T10:03:43;10.05;;;2.50;;
81908;SDS011;71372;43.514;1.512;2023-12-04T10:06:10;6.63;;;2.20;;
81908;SDS011;71372;43.514;1.512;2023-12-04T10:08:45;6.13;;;2.35;;
81908;SDS011;71372;43.514;1.512;2023-12-04T10:11:14;6.55;;;2.20;;
81908;SDS011;71372;43.514;1.512;2023-12-04T10:13:40;6.05;;;2.17;;
81908;SDS011;71372;43.514;1.512;2023-12-04T10:16:07;5.20;;;2.30;;
81908;SDS011;71372;43.514;1.512;2023-12-04T10:18:33;5.38;;;1.90;;
81908;SDS011;71372;43.514;1.512;2023-12-04T10:20:59;5.63;;;1.85;;
81908;SDS011;71372;43.514;1.512;2023-12-04T10:26:03;6.68;;;2.38;;
81908;SDS011;71372;43.514;1.512;2023-12-04T10:28:30;8.13;;;2.28;;
81908;SDS011;71372;43.514;1.512;2023-12-04T10:30:56;5.00;;;1.77;;
81908;SDS011;71372;43.514;1.512;2023-12-04T10:33:22;4.95;;;1.70;;
81908;SDS011;71372;43.514;1.512;2023-12-04T10:35:51;5.82;;;1.60;;
81908;SDS011;71372;43.514;1.512;2023-12-04T10:38:17;5.97;;;1.42;;
81908;SDS011;71372;43.514;1.512;2023-12-04T10:40:44;8.50;;;2.20;;
81908;SDS011;71372;43.514;1.512;2023-12-04T10:43:11;3.20;;;1.35;;
81908;SDS011;71372;43.514;1.512;2023-12-04T10:45:42;4.00;;;1.70;;
81908;SDS011;71372;43.514;1.512;2023-12-04T10:48:09;7.40;;;2.05;;
81908;SDS011;71372;43.514;1.512;2023-12-04T10:50:36;6.32;;;1.17;;
81908;SDS011;71372;43.514;1.512;2023-12-04T11:02:42;3.28;;;1.20;;
81908;SDS011;71372;43.514;1.512;2023-12-04T11:05:13;4.50;;;1.20;;
81908;SDS011;71372;43.514;1.512;2023-12-04T11:07:53;3.30;;;1.15;;
81908;SDS011;71372;43.514;1.512;2023-12-04T11:10:22;4.07;;;1.58;;
81908;SDS011;71372;43.514;1.512;2023-12-04T11:12:59;2.80;;;1.13;;
81908;SDS011;71372;43.514;1.512;2023-12-04T11:15:29;5.47;;;1.30;;
81908;SDS011;71372;43.514;1.512;2023-12-04T11:17:59;3.92;;;1.55;;
81908;SDS011;71372;43.514;1.512;2023-12-04T11:20:27;5.93;;;1.67;;
81908;SDS011;71372;43.514;1.512;2023-12-04T11:22:56;7.90;;;2.00;;
81908;SDS011;71372;43.514;1.512;2023-12-04T11:25:23;3.38;;;1.52;;
81908;SDS011;71372;43.514;1.512;2023-12-04T11:27:53;5.07;;;1.65;;
81908;SDS011;71372;43.514;1.512;2023-12-04T11:30:20;5.60;;;1.80;;
81908;SDS011;71372;43.514;1.512;2023-12-04T11:32:48;5.80;;;1.40;;
81908;SDS011;71372;43.514;1.512;2023-12-04T11:35:15;4.28;;;1.40;;
81908;SDS011;71372;43.514;1.512;2023-12-04T11:40:11;4.20;;;1.70;;
81908;SDS011;71372;43.514;1.512;2023-12-04T11:42:38;2.92;;;1.42;;
81908;SDS011;71372;43.514;1.512;2023-12-04T11:45:05;5.20;;;2.10;;
81908;SDS011;71372;43.514;1.512;2023-12-04T11:47:48;4.70;;;1.40;;
81908;SDS011;71372;43.514;1.512;2023-12-04T11:50:22;5.28;;;1.73;;
81908;SDS011;71372;43.514;1.512;2023-12-04T11:52:50;4.78;;;1.60;;
81908;SDS011;71372;43.514;1.512;2023-12-04T11:55:17;3.60;;;1.25;;
81908;SDS011;71372;43.514;1.512;2023-12-04T11:57:45;4.88;;;1.58;;
81908;SDS011;71372;43.514;1.512;2023-12-04T12:02:48;4.53;;;1.40;;
81908;SDS011;71372;43.514;1.512;2023-12-04T12:05:20;3.42;;;1.10;;
81908;SDS011;71372;43.514;1.512;2023-12-04T12:07:47;4.13;;;1.60;;
81908;SDS011;71372;43.514;1.512;2023-12-04T12:10:13;5.18;;;1.50;;
81908;SDS011;71372;43.514;1.512;2023-12-04T12:12:39;3.28;;;1.23;;
81908;SDS011;71372;43.514;1.512;2023-12-04T12:15:09;4.95;;;1.20;;
81908;SDS011;71372;43.514;1.512;2023-12-04T12:17:38;6.07;;;1.50;;
81908;SDS011;71372;43.514;1.512;2023-12-04T12:20:06;3.92;;;1.20;;
81908;SDS011;71372;43.514;1.512;2023-12-04T12:22:37;2.65;;;1.10;;
81908;SDS011;71372;43.514;1.512;2023-12-04T12:25:07;7.13;;;1.80;;
81908;SDS011;71372;43.514;1.512;2023-12-04T12:27:34;5.63;;;1.27;;
81908;SDS011;71372;43.514;1.512;2023-12-04T12:30:00;3.67;;;1.50;;
81908;SDS011;71372;43.514;1.512;2023-12-04T12:32:26;6.25;;;1.35;;
81908;SDS011;71372;43.514;1.512;2023-12-04T12:34:53;2.90;;;1.35;;
81908;SDS011;71372;43.514;1.512;2023-12-04T12:37:20;4.68;;;1.25;;
81908;SDS011;71372;43.514;1.512;2023-12-04T12:39:46;5.35;;;1.45;;
81908;SDS011;71372;43.514;1.512;2023-12-04T12:42:23;5.25;;;1.63;;
81908;SDS011;71372;43.514;1.512;2023-12-04T12:44:49;3.47;;;1.40;;
81908;SDS011;71372;43.514;1.512;2023-12-04T12:47:15;5.70;;;1.35;;
81908;SDS011;71372;43.514;1.512;2023-12-04T12:49:43;5.05;;;1.13;;
81908;SDS011;71372;43.514;1.512;2023-12-04T12:52:09;3.42;;;1.20;;
81908;SDS011;71372;43.514;1.512;2023-12-04T12:54:36;4.05;;;1.35;;
81908;SDS011;71372;43.514;1.512;2023-12-04T12:57:03;5.38;;;1.48;;
81908;SDS011;71372;43.514;1.512;2023-12-04T12:59:29;4.05;;;1.65;;
81908;SDS011;71372;43.514;1.512;2023-12-04T13:01:55;5.20;;;1.40;;
81908;SDS011;71372;43.514;1.512;2023-12-04T13:04:22;5.07;;;1.40;;
81908;SDS011;71372;43.514;1.512;2023-12-04T13:06:48;5.18;;;2.00;;
81908;SDS011;71372;43.514;1.512;2023-12-04T13:09:14;4.85;;;1.92;;
81908;SDS011;71372;43.514;1.512;2023-12-04T13:11:47;6.00;;;2.10;;
81908;SDS011;71372;43.514;1.512;2023-12-04T13:14:13;4.35;;;1.80;;
81908;SDS011;71372;43.514;1.512;2023-12-04T13:16:39;3.40;;;1.48;;
81908;SDS011;71372;43.514;1.512;2023-12-04T13:19:05;5.95;;;1.70;;
81908;SDS011;71372;43.514;1.512;2023-12-04T13:21:31;5.03;;;1.55;;
81908;SDS011;71372;43.514;1.512;2023-12-04T13:23:57;3.70;;;1.42;;
81908;SDS011;71372;43.514;1.512;2023-12-04T13:26:23;3.03;;;1.75;;
81908;SDS011;71372;43.514;1.512;2023-12-04T13:28:49;4.57;;;2.92;;
81908;SDS011;71372;43.514;1.512;2023-12-04T13:31:15;7.47;;;1.52;;
81908;SDS011;71372;43.514;1.512;2023-12-04T13:33:41;8.32;;;3.22;;
81908;SDS011;71372;43.514;1.512;2023-12-04T13:36:09;3.08;;;1.60;;
81908;SDS011;71372;43.514;1.512;2023-12-04T13:38:35;4.15;;;2.10;;
81908;SDS011;71372;43.514;1.512;2023-12-04T13:41:01;6.95;;;2.75;;
81908;SDS011;71372;43.514;1.512;2023-12-04T13:43:44;7.32;;;2.40;;
81908;SDS011;71372;43.514;1.512;2023-12-04T13:46:16;5.35;;;2.13;;
81908;SDS011;71372;43.514;1.512;2023-12-04T13:48:42;4.50;;;2.20;;
81908;SDS011;71372;43.514;1.512;2023-12-04T13:51:08;6.97;;;2.33;;
81908;SDS011;71372;43.514;1.512;2023-12-04T13:53:35;4.78;;;2.40;;
81908;SDS011;71372;43.514;1.512;2023-12-04T13:56:05;5.70;;;2.10;;
81908;SDS011;71372;43.514;1.512;2023-12-04T13:58:55;2.78;;;1.58;;
81908;SDS011;71372;43.514;1.512;2023-12-04T14:01:25;4.05;;;1.88;;
81908;SDS011;71372;43.514;1.512;2023-12-04T14:03:54;4.07;;;1.80;;
81908;SDS011;71372;43.514;1.512;2023-12-04T14:06:27;5.47;;;1.88;;
81908;SDS011;71372;43.514;1.512;2023-12-04T14:08:53;4.05;;;1.70;;
81908;SDS011;71372;43.514;1.512;2023-12-04T14:11:19;3.78;;;1.75;;
81908;SDS011;71372;43.514;1.512;2023-12-04T14:13:46;4.65;;;1.80;;
81908;SDS011;71372;43.514;1.512;2023-12-04T14:16:12;5.90;;;1.92;;
81908;SDS011;71372;43.514;1.512;2023-12-04T14:18:38;5.38;;;2.30;;
81908;SDS011;71372;43.514;1.512;2023-12-04T14:21:05;8.40;;;3.40;;
81908;SDS011;71372;43.514;1.512;2023-12-04T14:23:31;8.27;;;3.40;;
81908;SDS011;71372;43.514;1.512;2023-12-04T14:25:57;9.45;;;3.83;;
81908;SDS011;71372;43.514;1.512;2023-12-04T14:28:23;8.25;;;4.03;;
81908;SDS011;71372;43.514;1.512;2023-12-04T14:30:49;8.07;;;3.42;;
81908;SDS011;71372;43.514;1.512;2023-12-04T14:33:15;6.03;;;2.72;;
81908;SDS011;71372;43.514;1.512;2023-12-04T14:35:41;7.35;;;2.53;;
81908;SDS011;71372;43.514;1.512;2023-12-04T14:38:09;5.57;;;2.17;;
81908;SDS011;71372;43.514;1.512;2023-12-04T14:40:35;8.00;;;2.95;;
81908;SDS011;71372;43.514;1.512;2023-12-04T14:43:01;20.08;;;5.65;;
81908;SDS011;71372;43.514;1.512;2023-12-04T14:45:27;10.85;;;3.28;;
81908;SDS011;71372;43.514;1.512;2023-12-04T14:47:53;8.13;;;3.42;;
81908;SDS011;71372;43.514;1.512;2023-12-04T14:50:22;9.88;;;3.85;;
81908;SDS011;71372;43.514;1.512;2023-12-04T14:52:49;21.08;;;8.07;;
81908;SDS011;71372;43.514;1.512;2023-12-04T14:55:17;18.98;;;8.00;;
81908;SDS011;71372;43.514;1.512;2023-12-04T14:57:50;15.68;;;6.03;;
81908;SDS011;71372;43.514;1.512;2023-12-04T15:00:21;9.48;;;4.50;;